sensor_id;sensor_type;location;lat;lon;timestamp;P1;durP1;ratioP1;P2;durP2;ratioP2
40849;SDS011;26571;41.610;25.380;2023-02-19T00:01:37;18.02;;;14.25;;
40849;SDS011;26571;41.610;25.380;2023-02-19T00:04:05;15.07;;;13.15;;
40849;SDS011;26571;41.610;25.380;2023-02-19T00:06:33;17.45;;;13.52;;
40849;SDS011;26571;41.610;25.380;2023-02-19T00:08:59;15.30;;;12.15;;
40849;SDS011;26571;41.610;25.380;2023-02-19T00:11:26;16.47;;;13.30;;
40849;SDS011;26571;41.610;25.380;2023-02-19T00:13:55;17.13;;;14.10;;
40849;SDS011;26571;41.610;25.380;2023-02-19T00:18:48;16.15;;;12.18;;
40849;SDS011;26571;41.610;25.380;2023-02-19T00:21:14;14.48;;;12.20;;
40849;SDS011;26571;41.610;25.380;2023-02-19T00:23:40;21.33;;;16.17;;
40849;SDS011;26571;41.610;25.380;2023-02-19T00:26:10;19.88;;;14.35;;
40849;SDS011;26571;41.610;25.380;2023-02-19T00:28:37;15.40;;;13.15;;
40849;SDS011;26571;41.610;25.380;2023-02-19T00:31:04;19.13;;;15.23;;
40849;SDS011;26571;41.610;25.380;2023-02-19T00:33:30;16.92;;;14.70;;
40849;SDS011;26571;41.610;25.380;2023-02-19T00:35:58;15.57;;;14.05;;
40849;SDS011;26571;41.610;25.380;2023-02-19T00:38:25;18.27;;;15.48;;
40849;SDS011;26571;41.610;25.380;2023-02-19T00:40:50;15.55;;;12.75;;
40849;SDS011;26571;41.610;25.380;2023-02-19T00:43:15;18.10;;;13.85;;
40849;SDS011;26571;41.610;25.380;2023-02-19T00:45:41;16.83;;;13.55;;
40849;SDS011;26571;41.610;25.380;2023-02-19T00:48:06;15.05;;;12.80;;
40849;SDS011;26571;41.610;25.380;2023-02-19T00:50:31;14.45;;;12.90;;
40849;SDS011;26571;41.610;25.380;2023-02-19T00:52:57;16.67;;;13.40;;
40849;SDS011;26571;41.610;25.380;2023-02-19T00:55:22;14.60;;;12.98;;
40849;SDS011;26571;41.610;25.380;2023-02-19T00:57:48;15.10;;;13.50;;
40849;SDS011;26571;41.610;25.380;2023-02-19T01:00:13;18.17;;;15.15;;
40849;SDS011;26571;41.610;25.380;2023-02-19T01:02:39;14.98;;;13.38;;
40849;SDS011;26571;41.610;25.380;2023-02-19T01:05:04;18.85;;;14.07;;
40849;SDS011;26571;41.610;25.380;2023-02-19T01:07:30;18.90;;;14.15;;
40849;SDS011;26571;41.610;25.380;2023-02-19T01:09:55;14.80;;;13.18;;
40849;SDS011;26571;41.610;25.380;2023-02-19T01:12:20;14.10;;;12.60;;
40849;SDS011;26571;41.610;25.380;2023-02-19T01:14:48;14.57;;;13.07;;
40849;SDS011;26571;41.610;25.380;2023-02-19T01:17:13;16.83;;;13.45;;
40849;SDS011;26571;41.610;25.380;2023-02-19T01:19:39;14.35;;;12.90;;
40849;SDS011;26571;41.610;25.380;2023-02-19T01:22:04;18.40;;;14.57;;
40849;SDS011;26571;41.610;25.380;2023-02-19T01:24:29;16.88;;;13.57;;
40849;SDS011;26571;41.610;25.380;2023-02-19T01:26:55;14.52;;;13.00;;
40849;SDS011;26571;41.610;25.380;2023-02-19T01:29:20;14.10;;;12.65;;
40849;SDS011;26571;41.610;25.380;2023-02-19T01:31:46;14.13;;;12.63;;
40849;SDS011;26571;41.610;25.380;2023-02-19T01:34:11;15.57;;;13.07;;
40849;SDS011;26571;41.610;25.380;2023-02-19T01:36:37;15.63;;;12.57;;
40849;SDS011;26571;41.610;25.380;2023-02-19T01:39:03;17.08;;;13.10;;
40849;SDS011;26571;41.610;25.380;2023-02-19T01:41:30;14.15;;;12.13;;
40849;SDS011;26571;41.610;25.380;2023-02-19T01:44:06;13.80;;;12.38;;
40849;SDS011;26571;41.610;25.380;2023-02-19T01:46:51;15.98;;;12.75;;
40849;SDS011;26571;41.610;25.380;2023-02-19T01:49:28;15.02;;;13.52;;
40849;SDS011;26571;41.610;25.380;2023-02-19T01:51:57;13.20;;;11.82;;
40849;SDS011;26571;41.610;25.380;2023-02-19T01:54:29;15.77;;;12.73;;
40849;SDS011;26571;41.610;25.380;2023-02-19T01:56:57;17.75;;;12.40;;
40849;SDS011;26571;41.610;25.380;2023-02-19T01:59:25;14.38;;;11.88;;
40849;SDS011;26571;41.610;25.380;2023-02-19T02:01:51;14.65;;;13.07;;
40849;SDS011;26571;41.610;25.380;2023-02-19T02:04:16;15.73;;;13.43;;
40849;SDS011;26571;41.610;25.380;2023-02-19T02:06:47;15.63;;;11.55;;
40849;SDS011;26571;41.610;25.380;2023-02-19T02:09:15;13.98;;;10.80;;
40849;SDS011;26571;41.610;25.380;2023-02-19T02:12:01;16.15;;;11.30;;
40849;SDS011;26571;41.610;25.380;2023-02-19T02:14:28;12.50;;;11.20;;
40849;SDS011;26571;41.610;25.380;2023-02-19T02:22:37;14.70;;;12.07;;
40849;SDS011;26571;41.610;25.380;2023-02-19T02:27:57;13.60;;;11.52;;
40849;SDS011;26571;41.610;25.380;2023-02-19T02:30:31;13.80;;;10.35;;
40849;SDS011;26571;41.610;25.380;2023-02-19T02:35:50;13.73;;;11.18;;
40849;SDS011;26571;41.610;25.380;2023-02-19T02:38:19;11.10;;;9.88;;
40849;SDS011;26571;41.610;25.380;2023-02-19T02:40:47;14.15;;;11.43;;
40849;SDS011;26571;41.610;25.380;2023-02-19T02:43:13;11.48;;;10.05;;
40849;SDS011;26571;41.610;25.380;2023-02-19T02:45:39;13.20;;;10.00;;
40849;SDS011;26571;41.610;25.380;2023-02-19T02:51:03;12.55;;;10.80;;
40849;SDS011;26571;41.610;25.380;2023-02-19T02:53:39;11.45;;;9.57;;
40849;SDS011;26571;41.610;25.380;2023-02-19T02:56:27;14.63;;;11.18;;
40849;SDS011;26571;41.610;25.380;2023-02-19T02:58:54;14.30;;;11.43;;
40849;SDS011;26571;41.610;25.380;2023-02-19T03:01:23;15.15;;;12.63;;
40849;SDS011;26571;41.610;25.380;2023-02-19T03:04:13;14.90;;;11.15;;
40849;SDS011;26571;41.610;25.380;2023-02-19T03:06:44;18.02;;;11.75;;
40849;SDS011;26571;41.610;25.380;2023-02-19T03:12:11;14.55;;;12.32;;
40849;SDS011;26571;41.610;25.380;2023-02-19T03:15:00;17.10;;;13.35;;
40849;SDS011;26571;41.610;25.380;2023-02-19T03:17:48;13.85;;;12.02;;
40849;SDS011;26571;41.610;25.380;2023-02-19T03:20:35;16.65;;;11.82;;
40849;SDS011;26571;41.610;25.380;2023-02-19T03:23:06;15.30;;;11.73;;
40849;SDS011;26571;41.610;25.380;2023-02-19T03:25:33;13.70;;;11.82;;
40849;SDS011;26571;41.610;25.380;2023-02-19T03:28:20;15.18;;;12.07;;
40849;SDS011;26571;41.610;25.380;2023-02-19T03:31:10;16.60;;;11.80;;
40849;SDS011;26571;41.610;25.380;2023-02-19T03:33:40;12.15;;;9.45;;
40849;SDS011;26571;41.610;25.380;2023-02-19T03:36:09;13.82;;;12.00;;
40849;SDS011;26571;41.610;25.380;2023-02-19T03:38:41;12.38;;;11.07;;
40849;SDS011;26571;41.610;25.380;2023-02-19T03:41:27;13.18;;;10.70;;
40849;SDS011;26571;41.610;25.380;2023-02-19T03:44:06;11.07;;;9.50;;
40849;SDS011;26571;41.610;25.380;2023-02-19T03:52:44;11.33;;;9.57;;
40849;SDS011;26571;41.610;25.380;2023-02-19T03:55:17;9.98;;;8.98;;
40849;SDS011;26571;41.610;25.380;2023-02-19T03:57:54;11.30;;;8.95;;
40849;SDS011;26571;41.610;25.380;2023-02-19T04:03:07;11.30;;;10.10;;
40849;SDS011;26571;41.610;25.380;2023-02-19T04:05:34;11.68;;;10.25;;
40849;SDS011;26571;41.610;25.380;2023-02-19T04:08:07;13.40;;;12.05;;
40849;SDS011;26571;41.610;25.380;2023-02-19T04:10:38;27.15;;;19.60;;
40849;SDS011;26571;41.610;25.380;2023-02-19T04:13:09;19.42;;;14.43;;
40849;SDS011;26571;41.610;25.380;2023-02-19T04:15:39;18.55;;;14.52;;
40849;SDS011;26571;41.610;25.380;2023-02-19T04:18:10;17.73;;;13.50;;
40849;SDS011;26571;41.610;25.380;2023-02-19T04:20:41;15.55;;;12.70;;
40849;SDS011;26571;41.610;25.380;2023-02-19T04:23:08;16.85;;;13.07;;
40849;SDS011;26571;41.610;25.380;2023-02-19T04:25:34;14.98;;;11.40;;
40849;SDS011;26571;41.610;25.380;2023-02-19T04:28:02;14.30;;;10.90;;
40849;SDS011;26571;41.610;25.380;2023-02-19T04:30:28;14.15;;;12.00;;
40849;SDS011;26571;41.610;25.380;2023-02-19T04:32:53;13.27;;;11.15;;
40849;SDS011;26571;41.610;25.380;2023-02-19T04:35:19;11.18;;;10.07;;
40849;SDS011;26571;41.610;25.380;2023-02-19T04:37:44;14.50;;;10.50;;
40849;SDS011;26571;41.610;25.380;2023-02-19T04:40:09;14.10;;;11.27;;
40849;SDS011;26571;41.610;25.380;2023-02-19T04:42:35;15.10;;;12.07;;
40849;SDS011;26571;41.610;25.380;2023-02-19T04:45:01;19.88;;;12.98;;
40849;SDS011;26571;41.610;25.380;2023-02-19T04:47:26;24.38;;;19.25;;
40849;SDS011;26571;41.610;25.380;2023-02-19T04:49:52;18.83;;;14.27;;
40849;SDS011;26571;41.610;25.380;2023-02-19T04:52:17;20.67;;;13.95;;
40849;SDS011;26571;41.610;25.380;2023-02-19T04:54:42;19.77;;;14.40;;
40849;SDS011;26571;41.610;25.380;2023-02-19T04:57:08;16.30;;;13.52;;
40849;SDS011;26571;41.610;25.380;2023-02-19T04:59:33;15.50;;;12.30;;
40849;SDS011;26571;41.610;25.380;2023-02-19T05:01:59;18.40;;;12.73;;
40849;SDS011;26571;41.610;25.380;2023-02-19T05:04:24;18.05;;;14.63;;
40849;SDS011;26571;41.610;25.380;2023-02-19T05:06:49;17.23;;;14.48;;
40849;SDS011;26571;41.610;25.380;2023-02-19T05:09:15;16.55;;;13.38;;
40849;SDS011;26571;41.610;25.380;2023-02-19T05:11:40;16.10;;;12.70;;
40849;SDS011;26571;41.610;25.380;2023-02-19T05:14:06;19.05;;;14.13;;
40849;SDS011;26571;41.610;25.380;2023-02-19T05:16:31;17.92;;;14.25;;
40849;SDS011;26571;41.610;25.380;2023-02-19T05:18:57;15.15;;;12.52;;
40849;SDS011;26571;41.610;25.380;2023-02-19T05:21:23;14.30;;;11.88;;
40849;SDS011;26571;41.610;25.380;2023-02-19T05:23:48;20.38;;;12.85;;
40849;SDS011;26571;41.610;25.380;2023-02-19T05:26:15;17.88;;;13.82;;
40849;SDS011;26571;41.610;25.380;2023-02-19T05:28:47;37.83;;;26.58;;
40849;SDS011;26571;41.610;25.380;2023-02-19T05:31:14;70.88;;;50.58;;
40849;SDS011;26571;41.610;25.380;2023-02-19T05:33:40;47.63;;;34.78;;
40849;SDS011;26571;41.610;25.380;2023-02-19T05:36:12;37.58;;;27.45;;
40849;SDS011;26571;41.610;25.380;2023-02-19T05:38:38;49.78;;;34.05;;
40849;SDS011;26571;41.610;25.380;2023-02-19T05:43:39;31.30;;;21.20;;
40849;SDS011;26571;41.610;25.380;2023-02-19T05:46:06;33.70;;;23.42;;
40849;SDS011;26571;41.610;25.380;2023-02-19T05:48:32;24.02;;;16.20;;
40849;SDS011;26571;41.610;25.380;2023-02-19T05:51:04;14.20;;;11.43;;
40849;SDS011;26571;41.610;25.380;2023-02-19T05:53:32;19.73;;;14.13;;
40849;SDS011;26571;41.610;25.380;2023-02-19T05:55:57;21.58;;;17.33;;
40849;SDS011;26571;41.610;25.380;2023-02-19T05:58:23;21.70;;;15.95;;
40849;SDS011;26571;41.610;25.380;2023-02-19T06:00:49;19.80;;;17.50;;
40849;SDS011;26571;41.610;25.380;2023-02-19T06:03:14;20.88;;;15.27;;
40849;SDS011;26571;41.610;25.380;2023-02-19T06:05:39;18.25;;;14.20;;
40849;SDS011;26571;41.610;25.380;2023-02-19T06:08:05;23.23;;;20.73;;
40849;SDS011;26571;41.610;25.380;2023-02-19T06:10:30;25.77;;;21.23;;
40849;SDS011;26571;41.610;25.380;2023-02-19T06:12:56;20.60;;;16.80;;
40849;SDS011;26571;41.610;25.380;2023-02-19T06:15:22;64.97;;;42.90;;
40849;SDS011;26571;41.610;25.380;2023-02-19T06:17:47;74.10;;;45.40;;
40849;SDS011;26571;41.610;25.380;2023-02-19T06:20:13;68.65;;;44.03;;
40849;SDS011;26571;41.610;25.380;2023-02-19T06:22:39;30.67;;;22.05;;
40849;SDS011;26571;41.610;25.380;2023-02-19T06:25:04;25.77;;;18.90;;
40849;SDS011;26571;41.610;25.380;2023-02-19T06:27:32;29.73;;;22.88;;
40849;SDS011;26571;41.610;25.380;2023-02-19T06:29:57;27.52;;;21.00;;
40849;SDS011;26571;41.610;25.380;2023-02-19T06:32:23;28.63;;;22.15;;
40849;SDS011;26571;41.610;25.380;2023-02-19T06:34:48;26.98;;;20.58;;
40849;SDS011;26571;41.610;25.380;2023-02-19T06:37:14;18.35;;;15.48;;
40849;SDS011;26571;41.610;25.380;2023-02-19T06:39:39;48.75;;;31.80;;
40849;SDS011;26571;41.610;25.380;2023-02-19T06:42:05;13.65;;;10.95;;
40849;SDS011;26571;41.610;25.380;2023-02-19T06:44:30;16.02;;;12.15;;
40849;SDS011;26571;41.610;25.380;2023-02-19T06:46:56;25.17;;;18.20;;
40849;SDS011;26571;41.610;25.380;2023-02-19T06:49:21;27.30;;;22.10;;
40849;SDS011;26571;41.610;25.380;2023-02-19T06:51:47;13.13;;;11.82;;
40849;SDS011;26571;41.610;25.380;2023-02-19T06:54:12;16.55;;;13.90;;
40849;SDS011;26571;41.610;25.380;2023-02-19T06:56:38;20.67;;;18.40;;
40849;SDS011;26571;41.610;25.380;2023-02-19T06:59:12;16.85;;;14.90;;
40849;SDS011;26571;41.610;25.380;2023-02-19T07:01:41;20.48;;;14.15;;
40849;SDS011;26571;41.610;25.380;2023-02-19T07:04:07;20.48;;;15.10;;
40849;SDS011;26571;41.610;25.380;2023-02-19T07:06:33;15.38;;;13.75;;
40849;SDS011;26571;41.610;25.380;2023-02-19T07:08:59;19.63;;;16.20;;
40849;SDS011;26571;41.610;25.380;2023-02-19T07:11:27;23.80;;;18.77;;
40849;SDS011;26571;41.610;25.380;2023-02-19T07:13:55;17.10;;;15.30;;
40849;SDS011;26571;41.610;25.380;2023-02-19T07:16:24;20.92;;;17.48;;
40849;SDS011;26571;41.610;25.380;2023-02-19T07:18:50;22.15;;;18.58;;
40849;SDS011;26571;41.610;25.380;2023-02-19T07:21:16;17.15;;;15.05;;
40849;SDS011;26571;41.610;25.380;2023-02-19T07:23:42;18.90;;;16.63;;
40849;SDS011;26571;41.610;25.380;2023-02-19T07:28:39;24.60;;;21.15;;
40849;SDS011;26571;41.610;25.380;2023-02-19T07:31:05;23.00;;;18.42;;
40849;SDS011;26571;41.610;25.380;2023-02-19T07:33:31;23.67;;;17.95;;
40849;SDS011;26571;41.610;25.380;2023-02-19T07:35:57;16.52;;;14.70;;
40849;SDS011;26571;41.610;25.380;2023-02-19T07:38:23;15.05;;;13.38;;
40849;SDS011;26571;41.610;25.380;2023-02-19T07:40:52;14.35;;;12.88;;
40849;SDS011;26571;41.610;25.380;2023-02-19T07:43:23;14.43;;;12.93;;
40849;SDS011;26571;41.610;25.380;2023-02-19T07:48:15;16.20;;;14.50;;
40849;SDS011;26571;41.610;25.380;2023-02-19T07:50:41;11.50;;;9.50;;
40849;SDS011;26571;41.610;25.380;2023-02-19T07:53:06;11.55;;;8.65;;
40849;SDS011;26571;41.610;25.380;2023-02-19T07:55:32;11.32;;;10.23;;
40849;SDS011;26571;41.610;25.380;2023-02-19T07:57:58;10.00;;;9.00;;
40849;SDS011;26571;41.610;25.380;2023-02-19T08:00:24;11.07;;;10.00;;
40849;SDS011;26571;41.610;25.380;2023-02-19T08:02:51;8.45;;;7.63;;
40849;SDS011;26571;41.610;25.380;2023-02-19T08:05:26;9.90;;;8.93;;
40849;SDS011;26571;41.610;25.380;2023-02-19T08:07:52;9.65;;;7.05;;
40849;SDS011;26571;41.610;25.380;2023-02-19T08:10:18;8.98;;;8.13;;
40849;SDS011;26571;41.610;25.380;2023-02-19T08:13:02;10.48;;;9.13;;
40849;SDS011;26571;41.610;25.380;2023-02-19T08:15:44;10.60;;;8.82;;
40849;SDS011;26571;41.610;25.380;2023-02-19T08:18:11;8.70;;;7.75;;
40849;SDS011;26571;41.610;25.380;2023-02-19T08:23:03;8.80;;;8.00;;
40849;SDS011;26571;41.610;25.380;2023-02-19T08:25:29;10.65;;;8.30;;
40849;SDS011;26571;41.610;25.380;2023-02-19T08:27:54;9.93;;;8.05;;
40849;SDS011;26571;41.610;25.380;2023-02-19T08:30:20;9.00;;;7.95;;
40849;SDS011;26571;41.610;25.380;2023-02-19T08:32:46;8.25;;;7.35;;
40849;SDS011;26571;41.610;25.380;2023-02-19T08:35:11;8.15;;;7.15;;
40849;SDS011;26571;41.610;25.380;2023-02-19T08:37:37;8.30;;;7.50;;
40849;SDS011;26571;41.610;25.380;2023-02-19T08:40:02;7.90;;;7.03;;
40849;SDS011;26571;41.610;25.380;2023-02-19T08:42:28;9.48;;;8.57;;
40849;SDS011;26571;41.610;25.380;2023-02-19T08:44:53;7.75;;;6.95;;
40849;SDS011;26571;41.610;25.380;2023-02-19T08:47:19;7.35;;;6.65;;
40849;SDS011;26571;41.610;25.380;2023-02-19T08:49:44;9.02;;;7.50;;
40849;SDS011;26571;41.610;25.380;2023-02-19T08:52:10;13.50;;;8.93;;
40849;SDS011;26571;41.610;25.380;2023-02-19T08:54:35;9.85;;;7.18;;
40849;SDS011;26571;41.610;25.380;2023-02-19T08:57:00;11.77;;;8.30;;
40849;SDS011;26571;41.610;25.380;2023-02-19T08:59:27;8.15;;;7.18;;
40849;SDS011;26571;41.610;25.380;2023-02-19T09:01:53;8.32;;;7.43;;
40849;SDS011;26571;41.610;25.380;2023-02-19T09:04:18;7.97;;;7.15;;
40849;SDS011;26571;41.610;25.380;2023-02-19T09:06:44;7.88;;;7.13;;
40849;SDS011;26571;41.610;25.380;2023-02-19T09:09:09;9.98;;;7.75;;
40849;SDS011;26571;41.610;25.380;2023-02-19T09:11:37;8.32;;;7.28;;
40849;SDS011;26571;41.610;25.380;2023-02-19T09:14:03;9.98;;;8.70;;
40849;SDS011;26571;41.610;25.380;2023-02-19T09:16:31;20.13;;;15.48;;
40849;SDS011;26571;41.610;25.380;2023-02-19T09:18:57;7.63;;;6.85;;
40849;SDS011;26571;41.610;25.380;2023-02-19T09:21:22;8.77;;;7.93;;
40849;SDS011;26571;41.610;25.380;2023-02-19T09:23:48;8.98;;;7.25;;
40849;SDS011;26571;41.610;25.380;2023-02-19T09:26:13;8.80;;;7.35;;
40849;SDS011;26571;41.610;25.380;2023-02-19T09:28:39;9.93;;;8.45;;
40849;SDS011;26571;41.610;25.380;2023-02-19T09:31:14;113.45;;;52.20;;
40849;SDS011;26571;41.610;25.380;2023-02-19T09:33:43;6.60;;;5.97;;
40849;SDS011;26571;41.610;25.380;2023-02-19T09:36:11;12.07;;;9.10;;
40849;SDS011;26571;41.610;25.380;2023-02-19T09:38:37;7.28;;;6.57;;
40849;SDS011;26571;41.610;25.380;2023-02-19T09:41:07;7.15;;;6.50;;
40849;SDS011;26571;41.610;25.380;2023-02-19T09:43:38;34.08;;;22.95;;
40849;SDS011;26571;41.610;25.380;2023-02-19T09:48:47;7.90;;;5.82;;
40849;SDS011;26571;41.610;25.380;2023-02-19T09:51:13;5.90;;;5.40;;
40849;SDS011;26571;41.610;25.380;2023-02-19T09:53:43;7.38;;;6.68;;
40849;SDS011;26571;41.610;25.380;2023-02-19T09:56:12;5.72;;;5.20;;
40849;SDS011;26571;41.610;25.380;2023-02-19T09:58:43;7.85;;;5.50;;
40849;SDS011;26571;41.610;25.380;2023-02-19T10:01:12;7.93;;;6.30;;
40849;SDS011;26571;41.610;25.380;2023-02-19T10:03:39;5.68;;;5.15;;
40849;SDS011;26571;41.610;25.380;2023-02-19T10:08:38;6.57;;;5.97;;
40849;SDS011;26571;41.610;25.380;2023-02-19T10:11:04;7.43;;;6.47;;
40849;SDS011;26571;41.610;25.380;2023-02-19T10:13:32;6.80;;;5.55;;
40849;SDS011;26571;41.610;25.380;2023-02-19T10:16:01;7.53;;;5.00;;
40849;SDS011;26571;41.610;25.380;2023-02-19T10:18:34;6.70;;;5.18;;
40849;SDS011;26571;41.610;25.380;2023-02-19T10:21:03;7.28;;;4.82;;
40849;SDS011;26571;41.610;25.380;2023-02-19T10:23:29;7.53;;;5.75;;
40849;SDS011;26571;41.610;25.380;2023-02-19T10:25:56;6.82;;;5.93;;
40849;SDS011;26571;41.610;25.380;2023-02-19T10:28:27;9.70;;;7.28;;
40849;SDS011;26571;41.610;25.380;2023-02-19T10:30:56;7.95;;;6.07;;
40849;SDS011;26571;41.610;25.380;2023-02-19T10:33:23;6.28;;;5.68;;
40849;SDS011;26571;41.610;25.380;2023-02-19T10:38:17;6.40;;;5.80;;
40849;SDS011;26571;41.610;25.380;2023-02-19T10:40:44;6.05;;;5.40;;
40849;SDS011;26571;41.610;25.380;2023-02-19T10:43:27;6.47;;;4.93;;
40849;SDS011;26571;41.610;25.380;2023-02-19T10:45:57;6.13;;;5.40;;
40849;SDS011;26571;41.610;25.380;2023-02-19T10:48:34;5.63;;;3.97;;
40849;SDS011;26571;41.610;25.380;2023-02-19T10:51:04;9.13;;;6.28;;
40849;SDS011;26571;41.610;25.380;2023-02-19T10:53:38;4.45;;;4.05;;
40849;SDS011;26571;41.610;25.380;2023-02-19T10:56:15;3.40;;;3.17;;
40849;SDS011;26571;41.610;25.380;2023-02-19T10:58:48;3.45;;;3.15;;
40849;SDS011;26571;41.610;25.380;2023-02-19T11:03:44;4.20;;;3.80;;
40849;SDS011;26571;41.610;25.380;2023-02-19T11:06:14;3.08;;;2.88;;
40849;SDS011;26571;41.610;25.380;2023-02-19T11:13:49;7.18;;;4.95;;
40849;SDS011;26571;41.610;25.380;2023-02-19T11:16:15;4.10;;;3.80;;
40849;SDS011;26571;41.610;25.380;2023-02-19T11:18:41;5.35;;;4.18;;
40849;SDS011;26571;41.610;25.380;2023-02-19T11:21:19;4.40;;;3.90;;
40849;SDS011;26571;41.610;25.380;2023-02-19T11:23:52;4.85;;;4.53;;
40849;SDS011;26571;41.610;25.380;2023-02-19T11:28:54;4.27;;;3.87;;
40849;SDS011;26571;41.610;25.380;2023-02-19T11:38:46;5.82;;;3.75;;
40849;SDS011;26571;41.610;25.380;2023-02-19T11:46:41;8.02;;;6.95;;
40849;SDS011;26571;41.610;25.380;2023-02-19T11:49:48;4.13;;;3.72;;
40849;SDS011;26571;41.610;25.380;2023-02-19T11:52:28;5.20;;;4.07;;
40849;SDS011;26571;41.610;25.380;2023-02-19T12:15:00;4.78;;;4.38;;
40849;SDS011;26571;41.610;25.380;2023-02-19T12:28:37;3.60;;;3.30;;
40849;SDS011;26571;41.610;25.380;2023-02-19T12:31:21;4.95;;;4.10;;
40849;SDS011;26571;41.610;25.380;2023-02-19T12:39:44;3.25;;;2.70;;
40849;SDS011;26571;41.610;25.380;2023-02-19T12:42:34;5.57;;;5.05;;
40849;SDS011;26571;41.610;25.380;2023-02-19T12:45:03;4.78;;;3.22;;
40849;SDS011;26571;41.610;25.380;2023-02-19T12:47:39;4.35;;;3.95;;
40849;SDS011;26571;41.610;25.380;2023-02-19T12:53:16;5.22;;;4.55;;
40849;SDS011;26571;41.610;25.380;2023-02-19T12:55:46;5.10;;;4.60;;
40849;SDS011;26571;41.610;25.380;2023-02-19T12:58:23;3.92;;;3.65;;
40849;SDS011;26571;41.610;25.380;2023-02-19T13:00:54;3.53;;;3.08;;
40849;SDS011;26571;41.610;25.380;2023-02-19T13:06:41;4.32;;;3.92;;
40849;SDS011;26571;41.610;25.380;2023-02-19T13:09:22;6.00;;;2.53;;
40849;SDS011;26571;41.610;25.380;2023-02-19T13:12:05;3.75;;;3.33;;
40849;SDS011;26571;41.610;25.380;2023-02-19T13:14:36;5.95;;;4.45;;
40849;SDS011;26571;41.610;25.380;2023-02-19T13:19:40;5.72;;;3.92;;
40849;SDS011;26571;41.610;25.380;2023-02-19T13:37:07;3.85;;;3.55;;
40849;SDS011;26571;41.610;25.380;2023-02-19T13:39:35;3.85;;;3.33;;
40849;SDS011;26571;41.610;25.380;2023-02-19T13:42:01;4.07;;;3.60;;
40849;SDS011;26571;41.610;25.380;2023-02-19T13:44:27;4.57;;;4.13;;
40849;SDS011;26571;41.610;25.380;2023-02-19T13:46:55;6.75;;;4.43;;
40849;SDS011;26571;41.610;25.380;2023-02-19T13:51:53;4.88;;;3.97;;
40849;SDS011;26571;41.610;25.380;2023-02-19T13:54:26;4.78;;;4.22;;
40849;SDS011;26571;41.610;25.380;2023-02-19T13:59:48;4.40;;;4.00;;
40849;SDS011;26571;41.610;25.380;2023-02-19T14:09:51;5.57;;;4.63;;
40849;SDS011;26571;41.610;25.380;2023-02-19T14:12:18;4.82;;;4.47;;
40849;SDS011;26571;41.610;25.380;2023-02-19T14:14:45;4.25;;;3.95;;
40849;SDS011;26571;41.610;25.380;2023-02-19T14:28:31;5.22;;;4.75;;
40849;SDS011;26571;41.610;25.380;2023-02-19T14:35:52;6.43;;;4.22;;
40849;SDS011;26571;41.610;25.380;2023-02-19T14:38:24;5.85;;;5.13;;
40849;SDS011;26571;41.610;25.380;2023-02-19T14:40:52;6.25;;;5.20;;
40849;SDS011;26571;41.610;25.380;2023-02-19T14:43:20;5.65;;;4.15;;
40849;SDS011;26571;41.610;25.380;2023-02-19T14:48:51;4.53;;;4.13;;
40849;SDS011;26571;41.610;25.380;2023-02-19T14:53:57;6.82;;;3.72;;
40849;SDS011;26571;41.610;25.380;2023-02-19T14:56:30;6.68;;;4.60;;
40849;SDS011;26571;41.610;25.380;2023-02-19T14:59:06;7.65;;;4.25;;
40849;SDS011;26571;41.610;25.380;2023-02-19T15:01:37;5.65;;;5.15;;
40849;SDS011;26571;41.610;25.380;2023-02-19T15:04:04;6.47;;;5.75;;
40849;SDS011;26571;41.610;25.380;2023-02-19T15:08:58;5.32;;;4.65;;
40849;SDS011;26571;41.610;25.380;2023-02-19T15:11:30;7.10;;;5.40;;
40849;SDS011;26571;41.610;25.380;2023-02-19T15:14:38;15.63;;;10.98;;
40849;SDS011;26571;41.610;25.380;2023-02-19T15:16:47;4.95;;;4.55;;
40849;SDS011;26571;41.610;25.380;2023-02-19T15:19:19;5.10;;;4.63;;
40849;SDS011;26571;41.610;25.380;2023-02-19T15:21:45;4.57;;;4.18;;
40849;SDS011;26571;41.610;25.380;2023-02-19T15:24:14;5.57;;;4.97;;
40849;SDS011;26571;41.610;25.380;2023-02-19T15:26:48;5.00;;;4.50;;
40849;SDS011;26571;41.610;25.380;2023-02-19T15:29:18;4.88;;;4.28;;
40849;SDS011;26571;41.610;25.380;2023-02-19T15:31:52;5.18;;;3.40;;
40849;SDS011;26571;41.610;25.380;2023-02-19T15:34:26;5.88;;;4.95;;
40849;SDS011;26571;41.610;25.380;2023-02-19T15:37:00;7.20;;;4.78;;
40849;SDS011;26571;41.610;25.380;2023-02-19T15:39:32;6.90;;;5.25;;
40849;SDS011;26571;41.610;25.380;2023-02-19T15:42:01;7.78;;;5.40;;
40849;SDS011;26571;41.610;25.380;2023-02-19T15:47:03;7.57;;;6.18;;
40849;SDS011;26571;41.610;25.380;2023-02-19T15:49:41;7.18;;;4.97;;
40849;SDS011;26571;41.610;25.380;2023-02-19T15:52:30;11.70;;;7.22;;
40849;SDS011;26571;41.610;25.380;2023-02-19T15:57:40;10.48;;;8.25;;
40849;SDS011;26571;41.610;25.380;2023-02-19T16:00:22;11.85;;;8.00;;
40849;SDS011;26571;41.610;25.380;2023-02-19T16:03:03;12.40;;;9.55;;
40849;SDS011;26571;41.610;25.380;2023-02-19T16:05:29;14.20;;;8.13;;
40849;SDS011;26571;41.610;25.380;2023-02-19T16:10:35;7.15;;;5.13;;
40849;SDS011;26571;41.610;25.380;2023-02-19T16:13:01;9.27;;;5.82;;
40849;SDS011;26571;41.610;25.380;2023-02-19T16:15:28;9.50;;;7.15;;
40849;SDS011;26571;41.610;25.380;2023-02-19T16:17:55;7.40;;;6.30;;
40849;SDS011;26571;41.610;25.380;2023-02-19T16:20:30;9.23;;;8.32;;
40849;SDS011;26571;41.610;25.380;2023-02-19T16:22:58;13.88;;;9.15;;
40849;SDS011;26571;41.610;25.380;2023-02-19T16:25:32;10.35;;;7.30;;
40849;SDS011;26571;41.610;25.380;2023-02-19T16:28:12;7.55;;;6.75;;
40849;SDS011;26571;41.610;25.380;2023-02-19T16:30:45;7.80;;;7.07;;
40849;SDS011;26571;41.610;25.380;2023-02-19T16:35:56;10.38;;;8.35;;
40849;SDS011;26571;41.610;25.380;2023-02-19T16:38:22;8.80;;;7.18;;
40849;SDS011;26571;41.610;25.380;2023-02-19T16:45:43;11.20;;;7.38;;
40849;SDS011;26571;41.610;25.380;2023-02-19T16:48:09;12.18;;;7.70;;
40849;SDS011;26571;41.610;25.380;2023-02-19T16:50:37;8.77;;;6.70;;
40849;SDS011;26571;41.610;25.380;2023-02-19T16:53:05;10.57;;;8.57;;
40849;SDS011;26571;41.610;25.380;2023-02-19T16:55:31;10.35;;;7.45;;
40849;SDS011;26571;41.610;25.380;2023-02-19T16:57:58;8.13;;;6.43;;
40849;SDS011;26571;41.610;25.380;2023-02-19T17:00:26;9.07;;;7.57;;
40849;SDS011;26571;41.610;25.380;2023-02-19T17:02:56;10.13;;;5.00;;
40849;SDS011;26571;41.610;25.380;2023-02-19T17:05:26;6.75;;;6.10;;
40849;SDS011;26571;41.610;25.380;2023-02-19T17:07:53;9.75;;;7.22;;
40849;SDS011;26571;41.610;25.380;2023-02-19T17:10:19;11.07;;;6.22;;
40849;SDS011;26571;41.610;25.380;2023-02-19T17:12:52;8.98;;;7.22;;
40849;SDS011;26571;41.610;25.380;2023-02-19T17:15:19;7.53;;;6.68;;
40849;SDS011;26571;41.610;25.380;2023-02-19T17:17:45;9.45;;;7.65;;
40849;SDS011;26571;41.610;25.380;2023-02-19T17:22:52;8.32;;;7.53;;
40849;SDS011;26571;41.610;25.380;2023-02-19T17:25:18;13.93;;;9.13;;
40849;SDS011;26571;41.610;25.380;2023-02-19T17:27:43;14.55;;;9.57;;
40849;SDS011;26571;41.610;25.380;2023-02-19T17:30:10;11.77;;;6.97;;
40849;SDS011;26571;41.610;25.380;2023-02-19T17:32:40;6.85;;;6.25;;
40849;SDS011;26571;41.610;25.380;2023-02-19T17:35:05;9.43;;;6.75;;
40849;SDS011;26571;41.610;25.380;2023-02-19T17:37:31;6.00;;;5.45;;